createdAt,value
2017-05-01T00:00:39.543Z,52.80
2017-05-01T00:03:08.628Z,52.80
2017-05-01T00:05:37.717Z,53.00
2017-05-01T00:08:06.802Z,52.90
2017-05-01T00:10:36.003Z,53.10
2017-05-01T00:13:05.087Z,53.10
2017-05-01T00:15:34.914Z,53.10
2017-05-01T00:18:04.746Z,53.20
2017-05-01T00:20:33.832Z,53.20
2017-05-01T00:23:02.919Z,53.20
2017-05-01T00:25:31.999Z,53.30
2017-05-01T00:28:01.118Z,53.50
2017-05-01T00:30:30.198Z,53.70
2017-05-01T00:32:59.431Z,53.80
2017-05-01T00:35:28.523Z,53.70
2017-05-01T00:37:57.607Z,53.80
2017-05-01T00:40:26.709Z,53.90
2017-05-01T00:42:55.783Z,53.80
2017-05-01T00:45:25.612Z,53.80
2017-05-01T00:47:54.703Z,53.90
2017-05-01T00:50:23.947Z,54.10
2017-05-01T00:52:53.055Z,54.10
2017-05-01T00:55:22.106Z,54.10
2017-05-01T00:57:51.200Z,54.20
2017-05-01T01:00:20.335Z,54.20
2017-05-01T01:02:49.439Z,54.10
2017-05-01T01:05:19.266Z,54.20
2017-05-01T01:07:48.587Z,54.50
2017-05-01T01:10:23.258Z,54.50
2017-05-01T01:12:52.719Z,54.50
2017-05-01T01:15:21.815Z,54.60
2017-05-01T01:17:50.909Z,54.60
2017-05-01T01:20:20.015Z,54.60
2017-05-01T01:22:49.087Z,54.60
2017-05-01T01:25:18.922Z,54.60
2017-05-01T01:27:47.995Z,54.70
2017-05-01T01:30:18.015Z,54.70
2017-05-01T01:32:47.095Z,54.80
2017-05-01T01:35:16.191Z,54.90
2017-05-01T01:37:45.307Z,55.00
2017-05-01T01:40:14.389Z,55.00
2017-05-01T01:42:44.368Z,55.10
2017-05-01T01:45:13.428Z,55.20
2017-05-01T01:47:42.520Z,55.20
2017-05-01T01:50:11.636Z,55.30
2017-05-01T01:52:40.691Z,55.50
2017-05-01T01:55:09.771Z,55.50
2017-05-01T01:57:38.864Z,55.60
2017-05-01T02:00:08.305Z,55.60
2017-05-01T02:02:37.368Z,55.70
2017-05-01T02:05:06.447Z,55.70
2017-05-01T02:07:36.493Z,55.70
2017-05-01T02:10:06.267Z,55.80
2017-05-01T02:12:35.351Z,56.00
2017-05-01T02:15:05.207Z,56.10
2017-05-01T02:17:34.292Z,56.40
2017-05-01T02:20:03.403Z,56.20
2017-05-01T02:22:32.495Z,56.40
2017-05-01T02:25:01.782Z,56.60
2017-05-01T02:27:31.573Z,56.70
2017-05-01T02:30:00.634Z,56.80
2017-05-01T02:32:29.780Z,57.00
2017-05-01T02:34:58.882Z,56.90
2017-05-01T02:37:27.986Z,57.10
2017-05-01T02:39:57.073Z,57.20
2017-05-01T02:42:26.279Z,57.30
2017-05-01T02:44:55.369Z,57.30
2017-05-01T02:47:24.414Z,57.50
2017-05-01T02:49:54.263Z,57.70
2017-05-01T02:52:23.487Z,57.70
2017-05-01T02:54:52.567Z,58.10
2017-05-01T02:57:21.614Z,58.20
2017-05-01T02:59:51.482Z,58.40
2017-05-01T03:02:20.552Z,58.50
2017-05-01T03:04:49.934Z,58.60
2017-05-01T03:07:19.760Z,58.40
2017-05-01T03:09:48.821Z,58.50
2017-05-01T03:12:17.922Z,58.50
2017-05-01T03:14:47.750Z,58.50
2017-05-01T03:17:17.176Z,59.10
2017-05-01T03:19:46.971Z,58.60
2017-05-01T03:22:16.007Z,58.70
2017-05-01T03:24:45.114Z,58.80
2017-05-01T03:27:14.207Z,58.90
2017-05-01T03:29:43.283Z,59.00
2017-05-01T03:32:12.371Z,59.10
2017-05-01T03:34:41.602Z,59.30
2017-05-01T03:37:10.690Z,59.40
2017-05-01T03:39:39.755Z,59.40
2017-05-01T03:42:08.858Z,59.30
2017-05-01T03:44:37.935Z,59.30
2017-05-01T03:47:07.236Z,59.40
2017-05-01T03:49:37.026Z,59.30
2017-05-01T03:52:06.115Z,59.40
2017-05-01T03:54:35.959Z,59.50
2017-05-01T03:57:05.051Z,59.50
2017-05-01T03:59:34.151Z,59.60
2017-05-01T04:02:03.247Z,59.70
2017-05-01T04:04:32.495Z,59.70
2017-05-01T04:07:02.319Z,59.70
2017-05-01T04:09:32.155Z,59.60
2017-05-01T04:12:01.264Z,59.80
2017-05-01T04:14:30.347Z,59.70
2017-05-01T04:17:00.146Z,59.50
2017-05-01T04:19:29.231Z,59.70
2017-05-01T04:21:58.310Z,59.60
2017-05-01T04:24:28.132Z,59.60
2017-05-01T04:26:57.562Z,59.80
2017-05-01T04:29:26.647Z,59.90
2017-05-01T04:31:55.739Z,60.00
2017-05-01T04:34:24.831Z,60.70
2017-05-01T04:36:54.629Z,60.10
2017-05-01T04:39:24.471Z,60.40
2017-05-01T04:41:53.534Z,60.30
2017-05-01T04:44:23.686Z,60.30
2017-05-01T04:46:52.766Z,60.40
2017-05-01T04:49:21.851Z,60.30
2017-05-01T04:51:50.978Z,61.30
2017-05-01T04:54:20.112Z,60.10
2017-05-01T04:56:49.223Z,60.10
2017-05-01T04:59:18.963Z,60.30
2017-05-01T05:01:48.370Z,60.20
2017-05-01T05:04:17.426Z,60.00
2017-05-01T05:06:46.479Z,59.90
2017-05-01T05:09:15.578Z,59.80
2017-05-01T05:11:44.655Z,59.70
2017-05-01T05:14:13.892Z,59.60
2017-05-01T05:16:42.950Z,59.70
2017-05-01T05:19:12.040Z,59.60
2017-05-01T05:21:41.147Z,59.40
2017-05-01T05:24:10.192Z,59.30
2017-05-01T05:26:40.315Z,59.10
2017-05-01T05:29:09.400Z,59.00
2017-05-01T05:31:39.223Z,58.70
2017-05-01T05:34:08.332Z,58.70
2017-05-01T05:36:37.370Z,58.60
2017-05-01T05:39:06.488Z,58.40
2017-05-01T05:41:35.552Z,58.30
2017-05-01T05:44:04.663Z,58.10
2017-05-01T05:46:33.752Z,58.00
2017-05-01T05:49:02.838Z,57.80
2017-05-01T05:51:31.963Z,57.60
2017-05-01T05:54:01.112Z,57.30
2017-05-01T05:56:30.199Z,57.40
2017-05-01T05:59:00.003Z,57.20
2017-05-01T06:01:29.271Z,57.00
2017-05-01T06:03:59.094Z,57.10
2017-05-01T06:06:28.176Z,56.70
2017-05-01T06:08:58.032Z,56.50
2017-05-01T06:11:27.242Z,56.40
2017-05-01T06:13:56.329Z,56.30
2017-05-01T06:16:25.416Z,56.20
2017-05-01T06:18:54.667Z,56.20
2017-05-01T06:21:23.942Z,56.20
2017-05-01T06:23:53.039Z,56.30
2017-05-01T06:26:22.151Z,55.40
2017-05-01T06:28:51.236Z,55.50
2017-05-01T06:31:20.369Z,55.10
2017-05-01T06:33:50.254Z,55.00
2017-05-01T06:36:20.528Z,54.80
2017-05-01T06:38:49.738Z,54.40
2017-05-01T06:41:18.815Z,54.20
2017-05-01T06:43:47.945Z,54.20
2017-05-01T06:46:17.015Z,54.00
2017-05-01T06:48:46.408Z,54.10
2017-05-01T06:51:15.487Z,54.10
2017-05-01T06:53:44.605Z,54.20
2017-05-01T06:56:13.731Z,53.90
2017-05-01T06:58:42.825Z,53.60
2017-05-01T07:01:12.144Z,52.30
2017-05-01T07:03:41.199Z,52.20
2017-05-01T07:06:10.304Z,52.10
2017-05-01T07:08:39.443Z,51.90
2017-05-01T07:11:08.544Z,52.40
2017-05-01T07:13:37.772Z,52.00
2017-05-01T07:16:07.192Z,51.80
2017-05-01T07:18:36.299Z,51.80
2017-05-01T07:21:05.424Z,51.80
2017-05-01T07:23:34.478Z,51.80
2017-05-01T07:26:03.683Z,51.70
2017-05-01T07:28:33.264Z,51.80
2017-05-01T07:31:02.335Z,51.40
2017-05-01T07:33:31.479Z,51.50
2017-05-01T07:36:00.571Z,52.10
2017-05-01T07:38:29.756Z,51.50
2017-05-01T07:40:58.842Z,51.40
2017-05-01T07:43:27.927Z,51.10
2017-05-01T07:45:57.038Z,50.80
2017-05-01T07:48:26.244Z,50.90
2017-05-01T07:50:55.466Z,50.30
2017-05-01T07:53:24.571Z,50.90
2017-05-01T07:55:54.406Z,50.50
2017-05-01T07:58:24.235Z,54.90
2017-05-01T08:00:53.319Z,52.30
2017-05-01T08:03:22.842Z,49.20
2017-05-01T08:05:52.047Z,47.90
2017-05-01T08:08:21.138Z,47.70
2017-05-01T08:10:50.267Z,48.80
2017-05-01T08:13:19.462Z,48.60
2017-05-01T08:15:48.583Z,49.40
2017-05-01T08:18:17.679Z,45.60
2017-05-01T08:20:47.527Z,46.20
2017-05-01T08:23:16.595Z,46.70
2017-05-01T08:25:45.736Z,46.60
2017-05-01T08:28:14.990Z,45.60
2017-05-01T08:30:44.162Z,44.60
2017-05-01T08:33:13.247Z,45.70
2017-05-01T08:35:42.340Z,44.50
2017-05-01T08:38:11.564Z,43.20
2017-05-01T08:40:40.679Z,43.90
2017-05-01T08:43:09.780Z,44.80
2017-05-01T08:45:38.909Z,43.10
2017-05-01T08:48:08.029Z,43.30
2017-05-01T08:50:37.517Z,41.20
2017-05-01T08:53:07.388Z,41.90
2017-05-01T08:55:36.476Z,40.90
2017-05-01T08:58:05.596Z,42.30
2017-05-01T09:00:34.706Z,42.00
2017-05-01T09:03:03.824Z,41.10
2017-05-01T09:05:33.670Z,41.20
2017-05-01T09:08:03.197Z,40.40
2017-05-01T09:10:32.276Z,40.40
2017-05-01T09:13:01.384Z,39.90
2017-05-01T09:15:30.504Z,41.30
2017-05-01T09:17:59.623Z,41.40
2017-05-01T09:20:28.819Z,41.20
2017-05-01T09:22:58.675Z,41.10
2017-05-01T09:25:27.752Z,40.10
2017-05-01T09:27:57.025Z,40.70
2017-05-01T09:30:26.893Z,39.70
2017-05-01T09:32:56.243Z,38.60
2017-05-01T09:35:25.303Z,38.70
2017-05-01T09:37:54.407Z,37.70
2017-05-01T09:40:23.494Z,37.60
2017-05-01T09:42:52.591Z,38.10
2017-05-01T09:45:21.711Z,37.40
2017-05-01T09:47:51.081Z,37.20
2017-05-01T09:52:54.810Z,37.00
2017-05-01T09:55:24.036Z,37.10
2017-05-01T09:57:53.936Z,37.20
2017-05-01T10:00:23.794Z,37.40
2017-05-01T10:02:52.931Z,37.00
2017-05-01T10:05:22.035Z,37.10
2017-05-01T10:07:52.008Z,36.80
2017-05-01T10:10:21.102Z,37.10
2017-05-01T10:12:50.192Z,37.70
2017-05-01T10:15:19.307Z,37.90
2017-05-01T10:17:48.408Z,37.70
2017-05-01T10:20:17.779Z,37.60
2017-05-01T10:22:46.878Z,37.70
2017-05-01T10:25:15.977Z,37.30
2017-05-01T10:27:45.097Z,37.30
2017-05-01T10:30:14.191Z,37.00
2017-05-01T10:32:43.307Z,36.90
2017-05-01T10:35:13.159Z,37.20
2017-05-01T10:37:43.116Z,37.00
2017-05-01T10:40:12.191Z,37.10
2017-05-01T10:42:41.288Z,37.40
2017-05-01T10:45:10.402Z,37.50
2017-05-01T10:47:39.739Z,37.60
2017-05-01T10:50:09.082Z,37.70
2017-05-01T10:52:38.160Z,37.70
2017-05-01T10:55:07.250Z,37.60
2017-05-01T10:57:36.443Z,37.80
2017-05-01T11:00:05.531Z,37.70
2017-05-01T11:02:34.934Z,37.30
2017-05-01T11:05:04.065Z,37.20
2017-05-01T11:07:33.157Z,36.90
2017-05-01T11:10:02.307Z,36.70
2017-05-01T11:12:31.407Z,36.20
2017-05-01T11:15:00.531Z,35.60
2017-05-01T11:17:29.630Z,35.60
2017-05-01T11:19:58.872Z,35.50
2017-05-01T11:22:28.715Z,35.50
2017-05-01T11:24:57.811Z,35.10
2017-05-01T11:27:26.931Z,34.80
2017-05-01T11:29:56.027Z,34.50
2017-05-01T11:32:25.284Z,34.70
2017-05-01T11:34:55.118Z,35.30
2017-05-01T11:37:24.984Z,35.40
2017-05-01T11:39:54.474Z,34.80
2017-05-01T11:42:23.619Z,34.70
2017-05-01T11:44:52.763Z,34.80
2017-05-01T11:47:21.879Z,34.50
2017-05-01T11:49:51.871Z,34.20
2017-05-01T11:52:20.970Z,34.10
2017-05-01T11:54:50.069Z,33.70
2017-05-01T11:57:19.191Z,33.80
2017-05-01T11:59:49.038Z,33.90
2017-05-01T12:02:18.271Z,33.70
2017-05-01T12:04:47.379Z,33.80
2017-05-01T12:07:16.505Z,34.10
2017-05-01T12:09:46.363Z,34.00
2017-05-01T12:12:15.455Z,34.20
2017-05-01T12:14:44.718Z,34.30
2017-05-01T12:17:13.544Z,34.50
2017-05-01T12:19:42.636Z,34.50
2017-05-01T12:22:11.948Z,34.70
2017-05-01T12:24:41.069Z,35.00
2017-05-01T12:27:10.909Z,35.00
2017-05-01T12:29:40.149Z,35.40
2017-05-01T12:32:09.438Z,35.20
2017-05-01T12:34:38.538Z,35.80
2017-05-01T12:37:07.747Z,35.20
2017-05-01T12:39:36.871Z,35.00
2017-05-01T12:42:06.066Z,35.10
2017-05-01T12:44:35.531Z,35.40
2017-05-01T12:47:04.622Z,35.40
2017-05-01T12:49:33.728Z,35.50
2017-05-01T12:52:03.223Z,35.70
2017-05-01T12:54:32.319Z,35.90
2017-05-01T12:57:01.501Z,36.10
2017-05-01T12:59:30.708Z,36.20
2017-05-01T13:01:59.807Z,36.20
2017-05-01T13:04:28.891Z,35.70
2017-05-01T13:06:58.145Z,36.00
2017-05-01T13:09:28.335Z,35.70
2017-05-01T13:11:57.575Z,35.50
2017-05-01T13:14:26.801Z,34.40
2017-05-01T13:16:55.999Z,34.10
2017-05-01T13:19:25.098Z,33.20
2017-05-01T13:21:54.223Z,32.40
2017-05-01T13:24:23.320Z,32.20
2017-05-01T13:26:52.539Z,32.30
2017-05-01T13:29:22.380Z,32.90
2017-05-01T13:31:51.472Z,33.10
2017-05-01T13:34:21.723Z,33.30
2017-05-01T13:36:51.002Z,33.60
2017-05-01T13:39:20.121Z,33.50
2017-05-01T13:41:49.240Z,33.70
2017-05-01T13:44:18.300Z,34.30
2017-05-01T13:46:47.760Z,34.00
2017-05-01T13:49:17.597Z,33.90
2017-05-01T13:51:46.673Z,33.60
2017-05-01T13:54:16.643Z,33.10
2017-05-01T13:56:45.740Z,33.20
2017-05-01T13:59:14.863Z,32.80
2017-05-01T14:01:44.131Z,33.50
2017-05-01T14:04:13.850Z,33.60
2017-05-01T14:06:42.951Z,33.50
2017-05-01T14:09:12.732Z,33.00
2017-05-01T14:11:41.854Z,32.70
2017-05-01T14:14:10.955Z,32.80
2017-05-01T14:16:40.838Z,32.80
2017-05-01T14:19:09.954Z,32.80
2017-05-01T14:21:39.413Z,32.30
2017-05-01T14:24:08.507Z,32.30
2017-05-01T14:26:37.625Z,32.50
2017-05-01T14:29:06.734Z,32.70
2017-05-01T14:31:35.825Z,33.40
2017-05-01T14:34:05.443Z,33.90
2017-05-01T14:36:34.535Z,34.30
2017-05-01T14:39:03.639Z,34.70
2017-05-01T14:41:32.791Z,34.40
2017-05-01T14:44:01.915Z,33.90
2017-05-01T14:46:31.110Z,34.00
2017-05-01T14:49:00.210Z,33.70
2017-05-01T14:51:29.325Z,33.70
2017-05-01T14:53:58.512Z,34.00
2017-05-01T14:56:28.214Z,34.10
2017-05-01T14:58:58.505Z,34.20
2017-05-01T15:01:27.716Z,34.20
2017-05-01T15:03:56.845Z,34.20
2017-05-01T15:06:26.274Z,34.90
2017-05-01T15:08:56.135Z,35.10
2017-05-01T15:11:25.448Z,35.10
2017-05-01T15:13:54.605Z,35.00
2017-05-01T15:16:24.452Z,34.60
2017-05-01T15:18:54.560Z,34.60
2017-05-01T15:21:23.664Z,34.40
2017-05-01T15:23:52.803Z,34.40
2017-05-01T15:26:22.008Z,34.50
2017-05-01T15:28:51.858Z,34.10
2017-05-01T15:31:21.289Z,33.10
2017-05-01T15:33:50.502Z,33.10
2017-05-01T15:36:20.461Z,32.60
2017-05-01T15:38:49.858Z,32.40
2017-05-01T15:41:18.998Z,32.60
2017-05-01T15:43:48.951Z,32.90
2017-05-01T15:46:18.720Z,32.80
2017-05-01T15:48:47.961Z,33.40
2017-05-01T15:51:17.202Z,33.90
2017-05-01T15:53:46.445Z,34.20
2017-05-01T15:56:15.630Z,34.60
2017-05-01T15:58:44.755Z,34.70
2017-05-01T16:01:13.838Z,34.90
2017-05-01T16:03:44.126Z,34.50
2017-05-01T16:06:13.200Z,34.20
2017-05-01T16:08:42.409Z,33.70
2017-05-01T16:11:12.444Z,33.70
2017-05-01T16:13:41.622Z,33.80
2017-05-01T16:16:11.142Z,34.30
2017-05-01T16:18:40.394Z,34.50
2017-05-01T16:21:09.968Z,34.60
2017-05-01T16:23:39.154Z,34.40
2017-05-01T16:26:08.456Z,35.00
2017-05-01T16:28:37.705Z,35.40
2017-05-01T16:31:07.479Z,35.70
2017-05-01T16:33:37.548Z,36.00
2017-05-01T16:36:07.485Z,36.00
2017-05-01T16:38:37.367Z,36.00
2017-05-01T16:41:07.563Z,36.30
2017-05-01T16:43:36.683Z,36.70
2017-05-01T16:48:41.255Z,37.10
2017-05-01T16:51:10.574Z,37.40
2017-05-01T16:53:40.029Z,37.20
2017-05-01T16:56:09.175Z,37.60
2017-05-01T16:58:38.359Z,37.60
2017-05-01T17:01:07.451Z,37.80
2017-05-01T17:03:37.415Z,38.00
2017-05-01T17:06:06.526Z,38.40
2017-05-01T17:08:35.667Z,38.30
2017-05-01T17:11:04.853Z,38.50
2017-05-01T17:13:34.695Z,38.50
2017-05-01T17:16:03.809Z,38.50
2017-05-01T17:18:32.913Z,38.40
2017-05-01T17:21:02.177Z,38.60
2017-05-01T17:23:31.275Z,38.70
2017-05-01T17:26:00.431Z,38.90
2017-05-01T17:28:30.024Z,38.70
2017-05-01T17:30:59.530Z,38.70
2017-05-01T17:33:29.042Z,38.50
2017-05-01T17:35:58.535Z,38.60
2017-05-01T17:38:27.708Z,38.50
2017-05-01T17:40:56.826Z,38.60
2017-05-01T17:43:25.891Z,38.80
2017-05-01T17:45:55.824Z,38.80
2017-05-01T17:48:24.900Z,39.00
2017-05-01T17:50:53.996Z,39.20
2017-05-01T17:53:23.099Z,39.40
2017-05-01T17:55:52.900Z,39.20
2017-05-01T17:58:22.018Z,39.20
2017-05-01T18:00:51.117Z,39.30
2017-05-01T18:03:21.023Z,39.40
2017-05-01T18:05:50.152Z,39.20
2017-05-01T18:08:19.280Z,39.20
2017-05-01T18:10:48.394Z,39.10
2017-05-01T18:13:17.488Z,39.20
2017-05-01T18:15:46.854Z,39.40
2017-05-01T18:18:16.075Z,39.30
2017-05-01T18:20:45.139Z,39.30
2017-05-01T18:23:14.232Z,39.30
2017-05-01T18:25:43.297Z,39.40
2017-05-01T18:28:12.478Z,39.30
2017-05-01T18:30:41.603Z,39.50
2017-05-01T18:33:11.014Z,39.50
2017-05-01T18:35:40.163Z,39.70
2017-05-01T18:38:09.244Z,39.60
2017-05-01T18:40:38.515Z,39.80
2017-05-01T18:43:08.356Z,39.80
2017-05-01T18:45:38.193Z,39.70
2017-05-01T18:48:07.320Z,39.80
2017-05-01T18:50:36.423Z,39.80
2017-05-01T18:53:05.625Z,39.80
2017-05-01T18:55:35.839Z,39.70
2017-05-01T18:58:05.047Z,39.80
2017-05-01T19:00:34.152Z,39.90
2017-05-01T19:03:03.373Z,40.10
2017-05-01T19:05:32.443Z,40.00
2017-05-01T19:08:02.255Z,39.30
2017-05-01T19:10:32.203Z,39.60
2017-05-01T19:13:01.409Z,40.00
2017-05-01T19:15:30.482Z,40.20
2017-05-01T19:17:59.585Z,40.20
2017-05-01T19:20:29.379Z,40.30
2017-05-01T19:22:58.911Z,40.30
2017-05-01T19:25:27.998Z,40.40
2017-05-01T19:27:57.098Z,40.40
2017-05-01T19:30:26.202Z,40.30
2017-05-01T19:32:55.272Z,40.40
2017-05-01T19:35:24.505Z,40.40
2017-05-01T19:37:53.592Z,40.50
2017-05-01T19:40:22.694Z,40.60
2017-05-01T19:42:51.806Z,40.60
2017-05-01T19:45:20.951Z,40.70
2017-05-01T19:47:50.210Z,40.80
2017-05-01T19:50:19.310Z,41.00
2017-05-01T19:52:48.392Z,41.10
2017-05-01T19:55:17.534Z,41.80
2017-05-01T19:57:46.619Z,41.10
2017-05-01T20:00:16.126Z,41.20
2017-05-01T20:02:45.230Z,41.30
2017-05-01T20:05:14.301Z,41.30
2017-05-01T20:07:43.692Z,41.40
2017-05-01T20:10:12.768Z,41.60
2017-05-01T20:12:42.287Z,41.60
2017-05-01T20:15:11.367Z,41.60
2017-05-01T20:17:40.654Z,41.80
2017-05-01T20:20:09.734Z,42.00
2017-05-01T20:22:38.810Z,41.80
2017-05-01T20:25:08.200Z,42.10
2017-05-01T20:27:37.263Z,42.10
2017-05-01T20:30:06.384Z,42.20
2017-05-01T20:32:35.494Z,42.00
2017-05-01T20:35:04.583Z,42.10
2017-05-01T20:37:33.826Z,42.30
2017-05-01T20:40:02.922Z,42.40
2017-05-01T20:42:31.994Z,42.60
2017-05-01T20:45:01.103Z,42.30
2017-05-01T20:47:30.184Z,42.40
2017-05-01T20:49:59.278Z,42.50
2017-05-01T20:52:28.372Z,42.60
2017-05-01T20:54:57.741Z,42.70
2017-05-01T20:57:26.804Z,42.70
2017-05-01T20:59:55.910Z,42.80
2017-05-01T21:02:25.766Z,42.70
2017-05-01T21:04:54.863Z,42.70
2017-05-01T21:07:24.119Z,42.90
2017-05-01T21:09:53.180Z,42.90
2017-05-01T21:12:22.271Z,43.00
2017-05-01T21:14:51.372Z,43.00
2017-05-01T21:17:20.599Z,43.00
2017-05-01T21:19:50.439Z,43.10
2017-05-01T21:22:20.268Z,43.10
2017-05-01T21:24:49.413Z,43.30
2017-05-01T21:27:18.488Z,43.30
2017-05-01T21:29:47.883Z,43.40
2017-05-01T21:32:17.290Z,43.50
2017-05-01T21:34:46.359Z,43.50
2017-05-01T21:37:15.467Z,43.60
2017-05-01T21:39:44.539Z,43.70
2017-05-01T21:42:13.659Z,43.50
2017-05-01T21:44:42.719Z,43.70
2017-05-01T21:47:12.046Z,43.70
2017-05-01T21:49:41.147Z,43.80
2017-05-01T21:52:11.048Z,43.90
2017-05-01T21:54:40.136Z,44.00
2017-05-01T21:57:09.231Z,43.80
2017-05-01T21:59:38.762Z,43.90
2017-05-01T22:02:07.859Z,44.00
2017-05-01T22:04:37.883Z,44.20
2017-05-01T22:07:06.975Z,44.30
2017-05-01T22:09:36.067Z,44.40
2017-05-01T22:12:05.147Z,44.50
2017-05-01T22:14:34.246Z,44.60
2017-05-01T22:17:03.548Z,44.70
2017-05-01T22:19:32.598Z,44.80
2017-05-01T22:22:01.690Z,45.00
2017-05-01T22:24:30.811Z,45.00
2017-05-01T22:26:59.871Z,45.20
2017-05-01T22:29:29.850Z,45.20
2017-05-01T22:31:58.939Z,45.20
2017-05-01T22:34:28.035Z,45.20
2017-05-01T22:36:57.924Z,45.30
2017-05-01T22:39:27.007Z,45.30
2017-05-01T22:41:56.224Z,45.40
2017-05-01T22:44:25.303Z,45.50
2017-05-01T22:46:54.524Z,45.60
2017-05-01T22:49:23.619Z,45.60
2017-05-01T22:51:52.724Z,45.80
2017-05-01T22:54:21.839Z,45.90
2017-05-01T22:56:51.111Z,46.10
2017-05-01T22:59:20.495Z,46.20
2017-05-01T23:01:49.583Z,46.30
2017-05-01T23:04:18.789Z,46.40
2017-05-01T23:06:47.889Z,46.50
2017-05-01T23:09:16.948Z,46.60
2017-05-01T23:11:46.991Z,46.70
2017-05-01T23:14:16.779Z,46.80
2017-05-01T23:16:45.877Z,46.90
2017-05-01T23:19:15.717Z,47.10
2017-05-01T23:21:44.795Z,47.00
2017-05-01T23:24:14.099Z,47.10
2017-05-01T23:26:43.191Z,47.20
2017-05-01T23:29:12.521Z,47.30
2017-05-01T23:31:41.638Z,47.20
2017-05-01T23:34:11.494Z,47.30
2017-05-01T23:36:40.707Z,47.30
2017-05-01T23:39:09.799Z,47.30
2017-05-01T23:41:38.895Z,47.50
2017-05-01T23:44:10.062Z,47.50
2017-05-01T23:46:39.235Z,47.50
2017-05-01T23:49:08.631Z,47.60
2017-05-01T23:51:37.708Z,47.50
2017-05-01T23:54:06.807Z,47.70
2017-05-01T23:56:35.910Z,47.80
2017-05-01T23:59:04.976Z,48.30
